Aeroporto :
LOGIN :

Iscrizione | Disclaimer

   EN    FR    IT 

 










Sommario :    VFR   VFR Marginale   IFR   IFR Intensivo   IFR Molto Intensivo
Visibilità : 
Base nubi : 
>= 8 km
>= 3000ft
5 / 8 km
1000 / 3000 ft
1500m / 5 km
500 / 1000 ft
800 / 1500m
200 / 500 ft
< 800m
< 200 ft
Simboli :   Temporali  Nebbia  Neve Forte  Precipitazioni Forti  Vento > 20 kt
SIGMETs :   Varie  Temporali  Ghiacco  Turbolenza  Onda orograficha  Ceneri Vulcaniche






- Altitudine del aeroporto : 195 ft


LFMY - Salon de Provence

ULTIMO METAR :
  • 200700Z AUTO 05003KT 9999 FEW040 SCT062 OVC072 05/04 Q1012 TEMPO BKN010

METARs OBSOLETI :
  • 200630Z AUTO 05005KT 9999 FEW047 SCT066 OVC078 04/04 Q1012 TEMPO BKN010
  • 200600Z AUTO 06002KT 9999 FEW044 BKN078 03/03 Q1013 TEMPO BKN010
  • 200530Z AUTO 00000KT 9999 SCT040 03/03 Q1013
  • 200500Z AUTO 00000KT 9999 FEW041 04/02 Q1012
  • 200430Z AUTO 00000KT CAVOK 05/03 Q1012

TAF TAF LFMY
Valido dal 20 a 05 ore il 21 a 03 ore UTC


200543Z 2005/2103 03004KT 9999 SCT030
PROB30
TEMPO 2005/2008 BKN010
BECMG 2012/2014 12010KT



MetMap, La meteo Aeronautica in un colpo d'occhio ! - Copyright ORBIFLY Dicembre 2007 - Disclaimer

ORBIFLY MET'MAP TEAM :

Programmazione e sviluppo : Alexandra Zaïnal
Concezione e sviluppo : Baudouin d'Aumeries
Co-Programmazione e sviluppo : Marc-Olivier Méhu
Supporto tecnico e logistico : Manuel Goepfert
Aiuto per la traduzione : Arnaldo La Scala

Contatto : metmap@orbifly.com




FONTI E CREDITI :

   NOAA